Clearview, Texas
Current Conditions -  °F | °C
As of 2:15 PM on Sunday 21 Dec 2014 (Local Time) from KGYB Reporting Station
Overcast Overcast  
Wind Chill: 54°   Ceiling: 1500
Heat Index: 54°   Visibility: 10mi
Dew Point: 48°   Wind: 3mph
Humidity: 80%   Direction: 160°SSE
Pressure: 30"   Gusts: NA
Location:  30.1644°N, 97.2747°W
Report Text: KGYB 212015Z AUTO 16003KT 10SM BKN015 OVC020 12/09 A3000 RMK AO2 T01220089
Loading
Personal Weather Stations






























Interactive Weather Map New forecast layout! Learn more

10-Day Weather Forecast

Advertisements
Track Severe Weather on mobile